createdAt,value
2023-05-12T00:08:11.959Z,4.75
2023-05-12T00:13:16.033Z,5.57
2023-05-12T00:18:18.778Z,6.50
2023-05-12T00:23:21.351Z,6.97
2023-05-12T00:28:25.246Z,6.80
2023-05-12T00:38:30.247Z,5.97
2023-05-12T00:43:34.348Z,5.30
2023-05-12T00:48:37.180Z,0.70
2023-05-12T00:53:49.426Z,4.55
2023-05-12T00:58:54.336Z,4.83
2023-05-12T01:09:00.096Z,4.22
2023-05-12T01:14:04.361Z,4.50
2023-05-12T01:19:08.624Z,3.95
2023-05-12T01:24:13.842Z,5.30
2023-05-12T01:29:17.909Z,4.90
2023-05-12T01:39:23.307Z,7.00
2023-05-12T01:44:27.208Z,6.10
2023-05-12T01:54:32.228Z,6.93
2023-05-12T01:59:36.110Z,6.90
2023-05-12T02:09:41.061Z,6.75
2023-05-12T02:14:44.949Z,8.48
2023-05-12T02:24:50.112Z,7.68
2023-05-12T02:29:54.048Z,7.10
2023-05-12T02:39:59.037Z,7.90
2023-05-12T02:45:03.322Z,8.27
2023-05-12T02:50:06.495Z,8.35
2023-05-12T02:55:09.256Z,7.77
2023-05-12T03:00:13.779Z,7.95
2023-05-12T03:05:16.338Z,5.32
2023-05-12T03:10:19.507Z,7.78
2023-05-12T03:15:23.628Z,6.47
2023-05-12T03:20:26.178Z,6.95
2023-05-12T03:25:29.223Z,5.70
2023-05-12T03:30:34.056Z,5.20
2023-05-12T03:35:36.974Z,1.70
2023-05-12T03:40:39.846Z,6.97
2023-05-12T03:45:44.391Z,4.63
2023-05-12T03:50:47.399Z,7.45
2023-05-12T03:55:50.589Z,5.47
2023-05-12T04:00:57.357Z,6.87
2023-05-12T04:06:00.708Z,4.45
2023-05-12T04:11:03.526Z,7.60
2023-05-12T04:16:08.477Z,4.45
2023-05-12T04:21:11.441Z,4.28
2023-05-12T04:26:14.434Z,5.22
2023-05-12T04:31:18.695Z,4.73
2023-05-12T04:36:23.987Z,3.97
2023-05-12T04:41:29.106Z,3.10
2023-05-12T04:46:33.465Z,3.87
2023-05-12T04:51:42.236Z,3.95
2023-05-12T04:56:44.964Z,2.15
2023-05-12T05:01:49.149Z,3.47
2023-05-12T05:06:51.993Z,2.83
2023-05-12T05:11:54.530Z,2.88
2023-05-12T05:16:59.853Z,2.78
2023-05-12T05:22:03.893Z,3.35
2023-05-12T05:27:06.768Z,4.00
2023-05-12T05:32:11.200Z,3.70
2023-05-12T05:37:14.548Z,4.00
2023-05-12T05:42:18.077Z,3.53
2023-05-12T05:47:22.505Z,3.92
2023-05-12T05:52:25.519Z,4.03
2023-05-12T05:57:29.076Z,4.43
2023-05-12T06:02:33.401Z,3.90
2023-05-12T06:07:36.064Z,4.60
2023-05-12T06:12:40.923Z,4.53
2023-05-12T06:17:45.421Z,4.10
2023-05-12T06:22:48.355Z,4.03
2023-05-12T06:27:51.910Z,4.27
2023-05-12T06:32:56.093Z,2.50
2023-05-12T06:37:58.916Z,1.90
2023-05-12T06:43:01.730Z,2.75
2023-05-12T06:48:06.398Z,2.53
2023-05-12T06:53:09.204Z,3.47
2023-05-12T06:58:11.733Z,3.88
2023-05-12T07:03:15.917Z,3.00
2023-05-12T07:08:20.004Z,3.10
2023-05-12T07:13:23.004Z,2.28
2023-05-12T07:18:27.317Z,3.03
2023-05-12T07:23:29.968Z,2.50
2023-05-12T07:28:36.024Z,2.10
2023-05-12T07:33:39.938Z,1.73
2023-05-12T07:38:42.883Z,1.90
2023-05-12T07:43:45.840Z,2.33
2023-05-12T07:48:50.638Z,2.58
2023-05-12T07:53:55.223Z,2.50
2023-05-12T07:58:57.819Z,2.33
2023-05-12T08:04:02.225Z,2.95
2023-05-12T08:09:05.034Z,4.70
2023-05-12T08:14:07.551Z,2.80
2023-05-12T08:19:11.537Z,2.33
2023-05-12T08:24:14.282Z,2.67
2023-05-12T08:29:16.813Z,2.20
2023-05-12T08:34:20.925Z,1.23
2023-05-12T08:39:23.453Z,2.40
2023-05-12T08:44:26.536Z,1.95
2023-05-12T08:49:32.397Z,1.80
2023-05-12T08:54:48.684Z,1.77
2023-05-12T08:59:56.058Z,1.30
2023-05-12T09:05:00.178Z,1.45
2023-05-12T09:10:05.100Z,1.70
2023-05-12T09:15:08.867Z,1.50
2023-05-12T09:20:27.898Z,1.83
2023-05-12T09:25:33.728Z,1.70
2023-05-12T09:30:38.506Z,1.50
2023-05-12T09:35:43.047Z,1.75
2023-05-12T09:40:46.485Z,1.50
2023-05-12T09:45:50.612Z,1.25
2023-05-12T09:50:54.658Z,1.30
2023-05-12T09:55:57.285Z,1.20
2023-05-12T10:01:20.808Z,1.27
2023-05-12T10:06:28.178Z,0.87
2023-05-12T10:11:31.030Z,1.65
2023-05-12T10:16:34.449Z,1.00
2023-05-12T10:26:41.928Z,0.90
2023-05-12T10:31:46.358Z,0.50
2023-05-12T10:36:50.258Z,0.77
2023-05-12T10:42:01.546Z,0.60
2023-05-12T10:47:13.265Z,0.40
2023-05-12T10:52:21.969Z,0.70
2023-05-12T10:57:26.267Z,1.00
2023-05-12T11:02:32.364Z,0.88
2023-05-12T11:07:37.820Z,0.77
2023-05-12T11:12:43.663Z,0.93
2023-05-12T11:17:47.118Z,0.90
2023-05-12T11:27:53.423Z,1.35
2023-05-12T11:33:02.459Z,1.77
2023-05-12T11:38:15.269Z,1.80
2023-05-12T11:43:22.471Z,1.93
2023-05-12T11:48:34.745Z,1.48
2023-05-12T11:53:40.998Z,1.50
2023-05-12T11:58:52.804Z,1.92
2023-05-12T12:03:56.031Z,2.00
2023-05-12T12:08:59.963Z,1.70
2023-05-12T12:14:03.906Z,1.50
2023-05-12T12:19:07.534Z,1.30
2023-05-12T12:24:10.272Z,1.70
2023-05-12T12:29:14.424Z,1.80
2023-05-12T12:34:17.026Z,1.88
2023-05-12T12:39:20.167Z,1.95
2023-05-12T12:44:24.112Z,2.20
2023-05-12T12:49:26.877Z,2.00
2023-05-12T12:54:29.453Z,2.37
2023-05-12T12:59:33.680Z,2.42
2023-05-12T13:04:36.251Z,2.40
2023-05-12T13:09:38.851Z,2.42
2023-05-12T13:14:42.991Z,2.57
2023-05-12T13:19:45.646Z,2.60
2023-05-12T13:24:48.158Z,2.90
2023-05-12T13:29:52.149Z,2.93
2023-05-12T13:34:54.749Z,2.97
2023-05-12T13:39:57.304Z,3.73
2023-05-12T13:45:01.328Z,3.87
2023-05-12T13:50:03.959Z,4.38
2023-05-12T13:55:06.855Z,3.40
2023-05-12T14:00:11.549Z,3.25
2023-05-12T14:05:14.188Z,3.13
2023-05-12T14:10:16.921Z,3.80
2023-05-12T14:15:29.440Z,3.30
2023-05-12T14:20:35.565Z,3.28
2023-05-12T14:25:38.108Z,4.47
2023-05-12T14:30:43.368Z,3.37
2023-05-12T14:35:55.586Z,3.35
2023-05-12T14:41:08.100Z,3.03
2023-05-12T14:46:12.141Z,3.22
2023-05-12T14:51:14.754Z,2.92
2023-05-12T14:56:17.406Z,2.80
2023-05-12T15:01:21.513Z,3.08
2023-05-12T15:06:24.485Z,2.97
2023-05-12T15:11:27.291Z,3.53
2023-05-12T15:16:31.309Z,3.00
2023-05-12T15:21:35.497Z,2.90
2023-05-12T15:26:40.284Z,2.95
2023-05-12T15:31:45.565Z,2.75
2023-05-12T15:36:48.848Z,2.90
2023-05-12T15:41:51.439Z,3.10
2023-05-12T15:46:55.642Z,3.38
2023-05-12T15:51:58.475Z,3.80
2023-05-12T15:57:01.613Z,3.60
2023-05-12T16:02:05.713Z,3.10
2023-05-12T16:07:08.728Z,2.95
2023-05-12T16:12:12.281Z,3.53
2023-05-12T16:17:16.189Z,3.00
2023-05-12T16:22:18.810Z,3.22
2023-05-12T16:27:21.392Z,3.40
2023-05-12T16:32:25.745Z,3.08
2023-05-12T16:37:28.306Z,2.67
2023-05-12T16:42:31.046Z,2.00
2023-05-12T16:47:35.471Z,2.22
2023-05-12T16:52:38.364Z,1.60
2023-05-12T16:57:43.257Z,1.90
2023-05-12T17:02:47.530Z,1.98
2023-05-12T17:07:50.127Z,2.05
2023-05-12T17:12:53.069Z,1.42
2023-05-12T17:17:56.994Z,2.17
2023-05-12T17:22:59.986Z,1.90
2023-05-12T17:28:03.140Z,1.93
2023-05-12T17:33:08.457Z,2.55
2023-05-12T17:38:16.997Z,2.25
2023-05-12T17:43:22.984Z,2.15
2023-05-12T17:48:27.282Z,2.13
2023-05-12T17:53:30.922Z,2.03
2023-05-12T17:58:33.930Z,1.77
2023-05-12T18:03:38.420Z,2.27
2023-05-12T18:08:41.496Z,2.00
2023-05-12T18:13:44.359Z,2.33
2023-05-12T18:18:49.113Z,2.30
2023-05-12T18:23:52.301Z,1.80
2023-05-12T18:28:55.021Z,1.80
2023-05-12T18:33:59.670Z,2.30
2023-05-12T18:39:03.427Z,2.08
2023-05-12T18:44:15.257Z,2.30
2023-05-12T18:49:19.259Z,2.10
2023-05-12T18:54:42.852Z,2.17
2023-05-12T19:00:07.764Z,1.95
2023-05-12T19:05:32.660Z,2.13
2023-05-12T19:10:55.867Z,2.25
2023-05-12T19:16:19.101Z,1.92
2023-05-12T19:21:44.002Z,2.33
2023-05-12T19:27:07.639Z,2.42
2023-05-12T19:32:34.346Z,2.40
2023-05-12T19:37:58.727Z,2.78
2023-05-12T19:43:21.629Z,2.72
2023-05-12T19:48:44.437Z,2.20
2023-05-12T19:54:10.122Z,2.95
2023-05-12T19:59:32.980Z,2.63
2023-05-12T20:04:56.017Z,3.53
2023-05-12T20:10:01.301Z,3.40
2023-05-12T20:15:04.603Z,2.85
2023-05-12T20:20:08.324Z,3.13
2023-05-12T20:25:15.937Z,3.40
2023-05-12T20:30:18.504Z,3.65
2023-05-12T20:35:21.231Z,3.53
2023-05-12T20:40:25.213Z,3.55
2023-05-12T20:50:31.006Z,3.55
2023-05-12T20:55:35.351Z,3.22
2023-05-12T21:00:48.508Z,2.35
2023-05-12T21:05:51.096Z,4.10
2023-05-12T21:10:55.058Z,3.80
2023-05-12T21:21:00.255Z,3.78
2023-05-12T21:26:04.379Z,3.97
2023-05-12T21:31:07.140Z,3.58
2023-05-12T21:36:09.790Z,3.92
2023-05-12T21:41:38.621Z,3.45
2023-05-12T21:46:41.174Z,3.22
2023-05-12T21:51:43.731Z,3.25
2023-05-12T21:56:50.932Z,2.78
2023-05-12T22:01:53.779Z,3.53
2023-05-12T22:06:56.527Z,3.10
2023-05-12T22:12:00.807Z,2.75
2023-05-12T22:17:03.822Z,2.70
2023-05-12T22:22:06.563Z,2.73
2023-05-12T22:27:10.837Z,3.33
2023-05-12T22:32:14.522Z,3.22
2023-05-12T22:37:17.691Z,2.67
2023-05-12T22:42:21.915Z,2.73
2023-05-12T22:47:24.741Z,2.92
2023-05-12T22:52:28.057Z,3.25
2023-05-12T22:57:32.273Z,2.75
2023-05-12T23:02:35.486Z,3.58
2023-05-12T23:07:38.081Z,3.50
2023-05-12T23:12:42.617Z,3.95
2023-05-12T23:17:45.259Z,4.10
2023-05-12T23:22:48.320Z,3.67
2023-05-12T23:27:52.247Z,4.30
2023-05-12T23:32:55.287Z,3.17
2023-05-12T23:37:57.982Z,3.55
2023-05-12T23:43:01.917Z,3.85
2023-05-12T23:48:05.150Z,4.43
2023-05-12T23:53:08.269Z,4.50
2023-05-12T23:58:13.031Z,4.23
